createdAt,value
2018-02-20T00:00:52.893Z,28.90
2018-02-20T00:03:21.976Z,27.73
2018-02-20T00:05:50.595Z,25.05
2018-02-20T00:08:19.044Z,28.65
2018-02-20T00:10:47.402Z,27.23
2018-02-20T00:13:15.731Z,24.67
2018-02-20T00:15:44.063Z,28.48
2018-02-20T00:18:12.399Z,26.75
2018-02-20T00:20:40.731Z,27.60
2018-02-20T00:23:09.118Z,27.35
2018-02-20T00:25:38.118Z,26.37
2018-02-20T00:28:06.630Z,27.25
2018-02-20T00:30:35.808Z,29.55
2018-02-20T00:33:05.204Z,27.55
2018-02-20T00:35:33.650Z,29.90
2018-02-20T00:38:02.230Z,25.88
2018-02-20T00:40:30.840Z,26.60
2018-02-20T00:42:59.428Z,26.20
2018-02-20T00:45:28.755Z,26.85
2018-02-20T00:47:57.582Z,27.50
2018-02-20T00:50:26.033Z,26.15
2018-02-20T00:52:54.330Z,27.50
2018-02-20T00:55:22.662Z,25.60
2018-02-20T00:57:51.057Z,25.17
2018-02-20T01:00:19.824Z,24.05
2018-02-20T01:02:48.175Z,25.60
2018-02-20T01:05:16.492Z,26.85
2018-02-20T01:07:44.818Z,26.25
2018-02-20T01:10:13.158Z,26.70
2018-02-20T01:12:41.505Z,26.70
2018-02-20T01:15:09.906Z,24.65
2018-02-20T01:17:39.029Z,29.33
2018-02-20T01:20:08.247Z,26.12
2018-02-20T01:22:36.670Z,25.52
2018-02-20T01:25:05.026Z,24.90
2018-02-20T01:27:33.429Z,23.90
2018-02-20T01:30:02.072Z,26.90
2018-02-20T01:32:30.831Z,27.05
2018-02-20T01:34:59.435Z,26.25
2018-02-20T01:37:27.806Z,26.37
2018-02-20T01:39:56.137Z,26.85
2018-02-20T01:42:25.267Z,25.60
2018-02-20T01:44:54.346Z,27.48
2018-02-20T01:47:22.723Z,27.70
2018-02-20T01:49:51.322Z,26.35
2018-02-20T01:52:20.155Z,25.75
2018-02-20T01:54:48.521Z,28.83
2018-02-20T01:57:16.839Z,27.70
2018-02-20T01:59:45.139Z,29.12
2018-02-20T02:02:13.474Z,30.15
2018-02-20T02:04:41.807Z,29.17
2018-02-20T02:07:10.138Z,29.30
2018-02-20T02:09:38.911Z,27.25
2018-02-20T02:12:07.310Z,28.65
2018-02-20T02:14:35.878Z,32.10
2018-02-20T02:17:04.515Z,30.42
2018-02-20T02:19:33.236Z,30.48
2018-02-20T02:22:01.810Z,29.17
2018-02-20T02:24:30.383Z,31.62
2018-02-20T02:26:58.751Z,29.42
2018-02-20T02:29:27.079Z,28.80
2018-02-20T02:31:56.146Z,30.80
2018-02-20T02:34:24.451Z,30.08
2018-02-20T02:36:52.849Z,27.60
2018-02-20T02:39:21.419Z,29.40
2018-02-20T02:41:50.575Z,29.67
2018-02-20T02:44:19.067Z,32.45
2018-02-20T02:46:47.422Z,28.60
2018-02-20T02:49:16.668Z,29.65
2018-02-20T02:51:45.009Z,32.58
2018-02-20T02:54:13.344Z,32.72
2018-02-20T02:56:41.683Z,30.95
2018-02-20T02:59:10.874Z,30.60
2018-02-20T03:01:39.392Z,31.08
2018-02-20T03:04:08.563Z,32.25
2018-02-20T03:06:36.931Z,32.05
2018-02-20T03:09:06.127Z,30.95
2018-02-20T03:11:34.721Z,29.65
2018-02-20T03:14:03.659Z,32.33
2018-02-20T03:16:32.458Z,30.02
2018-02-20T03:19:01.236Z,30.70
2018-02-20T03:21:29.905Z,27.55
2018-02-20T03:23:59.280Z,27.25
2018-02-20T03:26:28.047Z,30.85
2018-02-20T03:28:56.340Z,30.10
2018-02-20T03:31:24.828Z,31.52
2018-02-20T03:33:53.422Z,30.20
2018-02-20T03:36:21.842Z,34.67
2018-02-20T03:38:51.124Z,31.27
2018-02-20T03:41:19.495Z,28.52
2018-02-20T03:43:47.799Z,31.12
2018-02-20T03:46:16.437Z,31.35
2018-02-20T03:48:44.706Z,32.90
2018-02-20T03:51:13.007Z,27.67
2018-02-20T03:53:41.347Z,32.05
2018-02-20T03:56:09.674Z,31.73
2018-02-20T03:58:38.187Z,30.08
2018-02-20T04:01:06.846Z,32.25
2018-02-20T04:03:35.310Z,29.75
2018-02-20T04:06:03.755Z,31.00
2018-02-20T04:08:33.623Z,30.10
2018-02-20T04:11:02.256Z,29.73
2018-02-20T04:13:32.699Z,27.80
2018-02-20T04:16:02.612Z,28.85
2018-02-20T04:18:31.962Z,30.15
2018-02-20T04:21:00.598Z,31.80
2018-02-20T04:23:28.998Z,28.62
2018-02-20T04:25:57.458Z,30.08
2018-02-20T04:28:25.796Z,26.60
2018-02-20T04:30:54.127Z,31.27
2018-02-20T04:33:23.932Z,30.45
2018-02-20T04:35:52.486Z,28.98
2018-02-20T04:38:21.658Z,27.33
2018-02-20T04:40:50.183Z,29.40
2018-02-20T04:43:18.555Z,23.62
2018-02-20T04:45:46.894Z,31.50
2018-02-20T04:48:15.242Z,32.35
2018-02-20T04:50:43.546Z,28.12
2018-02-20T04:53:11.910Z,31.65
2018-02-20T04:55:40.218Z,29.70
2018-02-20T04:58:08.614Z,32.75
2018-02-20T05:00:37.011Z,30.50
2018-02-20T05:03:06.049Z,32.78
2018-02-20T05:05:34.734Z,29.52
2018-02-20T05:08:03.203Z,28.85
2018-02-20T05:10:31.849Z,30.37
2018-02-20T05:13:02.011Z,29.55
2018-02-20T05:15:31.025Z,29.98
2018-02-20T05:18:00.478Z,31.35
2018-02-20T05:20:28.876Z,30.17
2018-02-20T05:22:57.234Z,29.17
2018-02-20T05:25:25.534Z,30.48
2018-02-20T05:27:53.875Z,29.60
2018-02-20T05:30:22.190Z,30.85
2018-02-20T05:32:51.589Z,30.65
2018-02-20T05:35:19.986Z,33.63
2018-02-20T05:37:49.319Z,28.95
2018-02-20T05:40:17.908Z,33.55
2018-02-20T05:42:46.233Z,32.83
2018-02-20T05:45:14.535Z,32.35
2018-02-20T05:47:42.865Z,31.67
2018-02-20T05:50:11.931Z,32.58
2018-02-20T05:52:40.267Z,33.95
2018-02-20T05:55:09.475Z,30.62
2018-02-20T05:57:37.778Z,31.70
2018-02-20T06:00:06.207Z,32.65
2018-02-20T06:02:35.694Z,32.13
2018-02-20T06:05:04.296Z,32.38
2018-02-20T06:07:32.823Z,29.33
2018-02-20T06:10:01.743Z,33.05
2018-02-20T06:12:30.158Z,33.75
2018-02-20T06:14:58.482Z,30.73
2018-02-20T06:17:27.171Z,30.98
2018-02-20T06:19:55.467Z,33.35
2018-02-20T06:22:23.979Z,30.00
2018-02-20T06:24:52.348Z,33.00
2018-02-20T06:27:20.976Z,33.55
2018-02-20T06:29:50.807Z,34.08
2018-02-20T06:32:19.222Z,31.83
2018-02-20T06:34:47.655Z,31.42
2018-02-20T06:37:16.323Z,34.78
2018-02-20T06:39:44.650Z,32.92
2018-02-20T06:42:12.954Z,30.42
2018-02-20T06:44:41.278Z,30.95
2018-02-20T06:47:10.342Z,36.90
2018-02-20T06:49:38.677Z,30.58
2018-02-20T06:52:07.377Z,30.40
2018-02-20T06:54:35.983Z,29.85
2018-02-20T06:57:05.562Z,31.08
2018-02-20T06:59:34.691Z,31.00
2018-02-20T07:02:03.957Z,25.02
2018-02-20T07:04:32.662Z,33.45
2018-02-20T07:07:02.024Z,34.10
2018-02-20T07:09:30.507Z,27.80
2018-02-20T07:11:58.999Z,28.73
2018-02-20T07:14:27.370Z,28.80
2018-02-20T07:16:55.690Z,25.83
2018-02-20T07:19:24.034Z,31.27
2018-02-20T07:21:52.526Z,32.72
2018-02-20T07:24:20.974Z,22.05
2018-02-20T07:26:49.347Z,28.20
2018-02-20T07:29:17.686Z,25.17
2018-02-20T07:31:46.775Z,28.10
2018-02-20T07:34:15.210Z,30.35
2018-02-20T07:36:44.274Z,29.58
2018-02-20T07:39:12.570Z,30.90
2018-02-20T07:41:40.902Z,27.75
2018-02-20T07:44:09.243Z,30.05
2018-02-20T07:46:38.491Z,31.52
2018-02-20T07:49:06.913Z,30.60
2018-02-20T07:51:35.583Z,28.00
2018-02-20T07:54:04.138Z,29.83
2018-02-20T07:56:32.801Z,25.17
2018-02-20T07:59:01.399Z,26.60
2018-02-20T08:01:29.907Z,27.23
2018-02-20T08:03:58.795Z,24.75
2018-02-20T08:06:27.879Z,28.08
2018-02-20T08:08:56.361Z,30.05
2018-02-20T08:11:24.758Z,22.62
2018-02-20T08:13:53.986Z,26.92
2018-02-20T08:16:22.531Z,30.37
2018-02-20T08:18:51.294Z,28.15
2018-02-20T08:21:19.711Z,26.95
2018-02-20T08:23:48.049Z,27.75
2018-02-20T08:26:16.410Z,26.17
2018-02-20T08:28:45.540Z,16.62
2018-02-20T08:31:13.878Z,27.27
2018-02-20T08:33:42.208Z,28.77
2018-02-20T08:36:10.586Z,27.27
2018-02-20T08:38:39.679Z,30.80
2018-02-20T08:41:08.023Z,22.15
2018-02-20T08:43:36.617Z,26.62
2018-02-20T08:46:05.199Z,29.02
2018-02-20T08:48:33.639Z,29.65
2018-02-20T08:51:02.239Z,30.17
2018-02-20T08:53:31.178Z,26.75
2018-02-20T08:55:59.646Z,27.90
2018-02-20T08:58:27.949Z,27.40
2018-02-20T09:00:56.335Z,26.83
2018-02-20T09:03:25.632Z,25.75
2018-02-20T09:05:54.827Z,29.50
2018-02-20T09:08:23.118Z,23.25
2018-02-20T09:10:51.422Z,29.50
2018-02-20T09:13:19.986Z,28.20
2018-02-20T09:15:48.542Z,29.15
2018-02-20T09:18:16.871Z,27.42
2018-02-20T09:20:45.194Z,30.67
2018-02-20T09:23:14.574Z,26.27
2018-02-20T09:25:42.866Z,27.05
2018-02-20T09:28:11.155Z,24.40
2018-02-20T09:30:39.791Z,27.40
2018-02-20T09:33:08.079Z,22.35
2018-02-20T09:35:36.377Z,25.45
2018-02-20T09:38:04.787Z,25.12
2018-02-20T09:40:33.218Z,24.98
2018-02-20T09:43:01.522Z,19.37
2018-02-20T09:45:29.847Z,23.48
2018-02-20T09:47:58.192Z,24.33
2018-02-20T09:50:26.503Z,21.50
2018-02-20T09:52:54.867Z,23.55
2018-02-20T09:55:23.219Z,23.35
2018-02-20T09:57:51.927Z,10.45
2018-02-20T10:00:20.222Z,24.77
2018-02-20T10:02:48.520Z,22.23
2018-02-20T10:05:16.859Z,20.27
2018-02-20T10:07:45.940Z,21.60
2018-02-20T10:10:14.299Z,23.45
2018-02-20T10:12:43.354Z,21.40
2018-02-20T10:15:11.643Z,24.15
2018-02-20T10:17:39.980Z,24.17
2018-02-20T10:20:08.316Z,23.23
2018-02-20T10:22:37.374Z,20.48
2018-02-20T10:25:05.739Z,22.35
2018-02-20T10:27:34.807Z,22.67
2018-02-20T10:30:03.150Z,20.42
2018-02-20T10:32:31.484Z,20.83
2018-02-20T10:34:59.879Z,22.87
2018-02-20T10:37:28.264Z,21.80
2018-02-20T10:39:56.663Z,23.15
2018-02-20T10:42:25.019Z,22.27
2018-02-20T10:44:53.331Z,22.10
2018-02-20T10:47:21.656Z,21.00
2018-02-20T10:49:50.022Z,22.08
2018-02-20T10:52:18.365Z,16.80
2018-02-20T10:54:46.879Z,19.55
2018-02-20T10:57:15.997Z,23.17
2018-02-20T10:59:44.406Z,18.70
2018-02-20T11:02:13.838Z,14.87
2018-02-20T11:04:42.158Z,20.12
2018-02-20T11:07:11.242Z,17.87
2018-02-20T11:09:39.669Z,22.10
2018-02-20T11:12:07.986Z,18.20
2018-02-20T11:14:37.072Z,21.37
2018-02-20T11:17:05.462Z,19.70
2018-02-20T11:19:34.101Z,19.67
2018-02-20T11:22:02.931Z,21.50
2018-02-20T11:24:31.513Z,17.90
2018-02-20T11:27:00.524Z,20.65
2018-02-20T11:29:28.898Z,17.33
2018-02-20T11:31:57.275Z,16.13
2018-02-20T11:34:26.383Z,16.80
2018-02-20T11:36:55.499Z,20.03
2018-02-20T11:39:24.617Z,18.90
2018-02-20T11:41:52.970Z,16.70
2018-02-20T11:44:21.326Z,18.60
2018-02-20T11:46:50.411Z,19.45
2018-02-20T11:49:18.882Z,19.65
2018-02-20T11:51:47.290Z,16.35
2018-02-20T11:54:15.686Z,17.33
2018-02-20T11:56:44.028Z,17.50
2018-02-20T11:59:12.381Z,16.30
2018-02-20T12:01:41.459Z,16.57
2018-02-20T12:04:09.770Z,16.57
2018-02-20T12:06:39.213Z,15.90
2018-02-20T12:09:08.306Z,18.63
2018-02-20T12:11:36.898Z,16.77
2018-02-20T12:14:05.276Z,17.47
2018-02-20T12:16:33.708Z,19.37
2018-02-20T12:19:02.177Z,16.07
2018-02-20T12:21:30.815Z,16.03
2018-02-20T12:24:00.158Z,16.63
2018-02-20T12:26:28.553Z,15.67
2018-02-20T12:28:56.914Z,15.52
2018-02-20T12:31:26.026Z,14.90
2018-02-20T12:33:55.109Z,13.20
2018-02-20T12:36:23.455Z,14.10
2018-02-20T12:38:52.544Z,12.70
2018-02-20T12:41:20.888Z,15.40
2018-02-20T12:43:49.344Z,14.20
2018-02-20T12:46:18.519Z,13.73
2018-02-20T12:48:46.890Z,12.87
2018-02-20T12:51:15.250Z,15.82
2018-02-20T12:53:43.578Z,13.53
2018-02-20T12:56:11.906Z,13.03
2018-02-20T12:58:40.254Z,9.13
2018-02-20T13:01:08.570Z,9.55
2018-02-20T13:03:36.886Z,12.40
2018-02-20T13:06:05.258Z,11.30
2018-02-20T13:08:33.795Z,11.90
2018-02-20T13:11:02.200Z,9.90
2018-02-20T13:13:30.682Z,11.23
2018-02-20T13:15:59.191Z,12.20
2018-02-20T13:18:27.553Z,11.40
2018-02-20T13:20:55.907Z,11.38
2018-02-20T13:23:24.219Z,11.60
2018-02-20T13:25:52.558Z,10.33
2018-02-20T13:28:21.739Z,9.13
2018-02-20T13:30:50.443Z,12.00
2018-02-20T13:33:19.786Z,10.03
2018-02-20T13:35:48.258Z,8.50
2018-02-20T13:38:16.626Z,10.48
2018-02-20T13:40:44.963Z,9.40
2018-02-20T13:43:13.343Z,8.30
2018-02-20T13:45:42.446Z,9.20
2018-02-20T13:48:10.754Z,10.03
2018-02-20T13:50:39.870Z,10.03
2018-02-20T13:53:08.987Z,10.80
2018-02-20T13:55:38.076Z,9.40
2018-02-20T13:58:06.388Z,9.67
2018-02-20T14:00:34.758Z,6.00
2018-02-20T14:03:03.094Z,9.48
2018-02-20T14:05:31.594Z,8.40
2018-02-20T14:08:00.097Z,7.50
2018-02-20T14:10:28.911Z,8.20
2018-02-20T14:12:57.271Z,10.63
2018-02-20T14:15:26.339Z,8.60
2018-02-20T14:17:54.680Z,9.10
2018-02-20T14:20:23.772Z,8.20
2018-02-20T14:22:52.114Z,11.40
2018-02-20T14:25:20.506Z,9.77
2018-02-20T14:27:49.682Z,9.90
2018-02-20T14:30:18.175Z,9.07
2018-02-20T14:32:46.486Z,8.47
2018-02-20T14:35:14.830Z,9.50
2018-02-20T14:37:43.175Z,10.60
2018-02-20T14:40:11.529Z,8.40
2018-02-20T14:42:39.838Z,8.40
2018-02-20T14:45:08.173Z,8.90
2018-02-20T14:47:36.984Z,10.30
2018-02-20T14:50:05.524Z,10.13
2018-02-20T14:52:34.384Z,8.83
2018-02-20T14:55:03.977Z,10.57
2018-02-20T14:57:32.631Z,10.37
2018-02-20T15:00:01.147Z,7.47
2018-02-20T15:02:29.582Z,9.13
2018-02-20T15:04:59.019Z,11.05
2018-02-20T15:07:28.162Z,10.17
2018-02-20T15:09:56.542Z,10.18
2018-02-20T15:12:24.908Z,10.70
2018-02-20T15:14:53.378Z,10.07
2018-02-20T15:17:21.814Z,8.83
2018-02-20T15:19:50.251Z,7.60
2018-02-20T15:22:18.651Z,11.13
2018-02-20T15:24:47.066Z,10.75
2018-02-20T15:27:15.383Z,9.25
2018-02-20T15:29:43.694Z,8.48
2018-02-20T15:32:12.038Z,6.27
2018-02-20T15:34:40.370Z,10.50
2018-02-20T15:37:09.020Z,8.63
2018-02-20T15:39:37.595Z,9.07
2018-02-20T15:42:06.000Z,8.27
2018-02-20T15:44:34.831Z,8.15
2018-02-20T15:47:03.338Z,6.95
2018-02-20T15:49:32.749Z,8.10
2018-02-20T15:52:01.299Z,8.25
2018-02-20T15:54:30.141Z,7.15
2018-02-20T15:56:58.814Z,9.82
2018-02-20T15:59:27.354Z,7.32
2018-02-20T16:01:55.831Z,8.35
2018-02-20T16:04:24.949Z,7.70
2018-02-20T16:06:53.262Z,9.05
2018-02-20T16:09:22.602Z,8.73
2018-02-20T16:11:52.071Z,8.47
2018-02-20T16:14:21.374Z,9.47
2018-02-20T16:16:49.858Z,9.93
2018-02-20T16:19:18.338Z,9.20
2018-02-20T16:21:46.678Z,8.80
2018-02-20T16:24:15.742Z,9.53
2018-02-20T16:26:44.082Z,8.50
2018-02-20T16:29:13.166Z,9.82
2018-02-20T16:31:41.514Z,8.87
2018-02-20T16:34:09.863Z,10.97
2018-02-20T16:36:38.217Z,8.85
2018-02-20T16:39:07.359Z,10.17
2018-02-20T16:41:35.778Z,9.95
2018-02-20T16:44:05.220Z,9.47
2018-02-20T16:46:33.714Z,9.10
2018-02-20T16:49:02.184Z,9.40
2018-02-20T16:51:31.921Z,9.50
2018-02-20T16:54:00.695Z,9.70
2018-02-20T16:56:29.192Z,9.50
2018-02-20T16:58:57.518Z,9.60
2018-02-20T17:01:25.871Z,9.60
2018-02-20T17:03:54.182Z,9.30
2018-02-20T17:06:22.591Z,11.38
2018-02-20T17:08:50.954Z,12.30
2018-02-20T17:11:19.338Z,10.27
2018-02-20T17:13:48.423Z,10.98
2018-02-20T17:16:16.855Z,10.65
2018-02-20T17:18:46.205Z,13.35
2018-02-20T17:21:15.406Z,15.70
2018-02-20T17:23:44.670Z,14.63
2018-02-20T17:26:13.050Z,13.77
2018-02-20T17:28:42.186Z,15.10
2018-02-20T17:31:10.541Z,16.02
2018-02-20T17:33:38.870Z,14.10
2018-02-20T17:36:08.117Z,16.10
2018-02-20T17:38:36.766Z,17.12
2018-02-20T17:41:05.098Z,17.40
2018-02-20T17:43:35.157Z,17.05
2018-02-20T17:46:03.729Z,15.63
2018-02-20T17:48:32.959Z,15.73
2018-02-20T17:51:02.383Z,18.70
2018-02-20T17:53:31.719Z,17.23
2018-02-20T17:56:00.631Z,16.95
2018-02-20T17:58:29.179Z,14.02
2018-02-20T18:00:57.583Z,17.20
2018-02-20T18:03:25.940Z,14.10
2018-02-20T18:05:54.250Z,16.15
2018-02-20T18:08:23.401Z,17.75
2018-02-20T18:10:51.942Z,15.80
2018-02-20T18:13:20.764Z,16.77
2018-02-20T18:15:50.320Z,16.27
2018-02-20T18:18:18.687Z,15.50
2018-02-20T18:20:47.039Z,14.15
2018-02-20T18:23:15.386Z,14.73
2018-02-20T18:25:43.705Z,13.30
2018-02-20T18:28:12.066Z,15.38
2018-02-20T18:30:41.173Z,15.50
2018-02-20T18:33:10.258Z,16.17
2018-02-20T18:35:38.886Z,16.27
2018-02-20T18:38:07.203Z,15.93
2018-02-20T18:40:36.446Z,15.85
2018-02-20T18:43:05.712Z,17.95
2018-02-20T18:45:34.927Z,14.63
2018-02-20T18:48:03.410Z,15.98
2018-02-20T18:50:32.182Z,19.05
2018-02-20T18:53:00.746Z,17.90
2018-02-20T18:55:29.158Z,17.42
2018-02-20T18:57:58.475Z,16.42
2018-02-20T19:00:26.833Z,16.77
2018-02-20T19:02:55.911Z,16.20
2018-02-20T19:05:24.561Z,17.87
2018-02-20T19:07:53.047Z,20.40
2018-02-20T19:10:21.358Z,19.55
2018-02-20T19:12:49.733Z,18.77
2018-02-20T19:15:18.901Z,18.65
2018-02-20T19:17:47.601Z,19.10
2018-02-20T19:20:15.914Z,18.95
2018-02-20T19:22:44.994Z,27.58
2018-02-20T19:25:13.644Z,21.67
2018-02-20T19:27:42.727Z,20.05
2018-02-20T19:30:11.044Z,19.73
2018-02-20T19:32:39.406Z,23.35
2018-02-20T19:35:07.747Z,24.95
2018-02-20T19:37:37.875Z,21.87
2018-02-20T19:40:07.226Z,18.98
2018-02-20T19:42:35.627Z,19.15
2018-02-20T19:45:04.818Z,18.05
2018-02-20T19:47:33.330Z,20.50
2018-02-20T19:50:02.254Z,18.10
2018-02-20T19:52:30.799Z,17.50
2018-02-20T19:54:59.779Z,17.75
2018-02-20T19:57:28.300Z,18.25
2018-02-20T19:59:57.402Z,19.42
2018-02-20T20:02:25.746Z,19.58
2018-02-20T20:04:54.823Z,19.77
2018-02-20T20:07:23.194Z,19.33
2018-02-20T20:09:51.847Z,18.77
2018-02-20T20:12:20.293Z,18.67
2018-02-20T20:14:48.710Z,20.20
2018-02-20T20:17:17.898Z,20.30
2018-02-20T20:19:47.117Z,17.83
2018-02-20T20:22:15.541Z,21.52
2018-02-20T20:24:43.927Z,19.70
2018-02-20T20:27:12.295Z,20.27
2018-02-20T20:29:40.612Z,17.92
2018-02-20T20:32:10.312Z,19.10
2018-02-20T20:34:38.646Z,19.23
2018-02-20T20:37:07.486Z,17.50
2018-02-20T20:39:36.347Z,18.55
2018-02-20T20:42:05.071Z,20.62
2018-02-20T20:44:33.936Z,22.05
2018-02-20T20:47:02.659Z,24.90
2018-02-20T20:49:31.460Z,21.75
2018-02-20T20:52:00.036Z,18.92
2018-02-20T20:54:28.627Z,18.77
2018-02-20T20:56:57.254Z,18.55
2018-02-20T20:59:25.585Z,18.95
2018-02-20T21:01:54.123Z,18.58
2018-02-20T21:04:23.229Z,18.08
2018-02-20T21:06:51.678Z,20.65
2018-02-20T21:09:20.022Z,18.98
2018-02-20T21:11:48.404Z,17.10
2018-02-20T21:14:16.764Z,18.30
2018-02-20T21:16:45.855Z,15.80
2018-02-20T21:19:14.674Z,19.08
2018-02-20T21:21:42.999Z,18.23
2018-02-20T21:24:12.087Z,19.30
2018-02-20T21:26:41.165Z,19.98
2018-02-20T21:29:10.848Z,18.52
2018-02-20T21:31:39.198Z,19.50
2018-02-20T21:34:07.797Z,17.10
2018-02-20T21:36:36.204Z,20.50
2018-02-20T21:39:04.742Z,17.80
2018-02-20T21:41:33.302Z,18.30
2018-02-20T21:44:02.724Z,20.40
2018-02-20T21:46:31.144Z,18.12
2018-02-20T21:48:59.554Z,19.52
2018-02-20T21:51:28.050Z,19.05
2018-02-20T21:53:56.739Z,19.10
2018-02-20T21:56:25.142Z,17.48
2018-02-20T21:58:55.439Z,20.27
2018-02-20T22:01:23.880Z,18.48
2018-02-20T22:03:52.211Z,18.20
2018-02-20T22:06:21.590Z,17.98
2018-02-20T22:08:50.251Z,19.65
2018-02-20T22:11:18.580Z,19.27
2018-02-20T22:13:46.938Z,21.00
2018-02-20T22:16:16.050Z,17.73
2018-02-20T22:18:44.407Z,20.48
2018-02-20T22:21:12.970Z,19.08
2018-02-20T22:23:41.303Z,20.85
2018-02-20T22:26:09.618Z,19.70
2018-02-20T22:28:38.153Z,18.15
2018-02-20T22:31:06.882Z,19.58
2018-02-20T22:33:36.218Z,17.50
2018-02-20T22:36:05.601Z,21.33
2018-02-20T22:38:34.507Z,20.52
2018-02-20T22:41:03.016Z,18.50
2018-02-20T22:43:32.093Z,20.37
2018-02-20T22:46:01.644Z,19.83
2018-02-20T22:48:30.610Z,18.55
2018-02-20T22:51:00.094Z,19.83
2018-02-20T22:53:29.394Z,20.50
2018-02-20T22:55:57.902Z,18.75
2018-02-20T22:58:26.306Z,18.37
2018-02-20T23:00:54.634Z,19.90
2018-02-20T23:03:23.106Z,18.80
2018-02-20T23:05:51.618Z,18.08
2018-02-20T23:08:20.392Z,18.00
2018-02-20T23:10:48.829Z,18.62
2018-02-20T23:13:17.147Z,18.05
2018-02-20T23:15:46.258Z,18.40
2018-02-20T23:18:14.578Z,14.95
2018-02-20T23:20:43.706Z,15.35
2018-02-20T23:23:12.786Z,18.40
2018-02-20T23:25:41.098Z,18.00
2018-02-20T23:28:09.445Z,17.25
2018-02-20T23:30:37.984Z,18.40
2018-02-20T23:33:06.436Z,19.17
2018-02-20T23:35:35.279Z,18.08
2018-02-20T23:38:04.251Z,16.15
2018-02-20T23:40:33.570Z,17.40
2018-02-20T23:43:02.227Z,15.90
2018-02-20T23:45:31.791Z,17.10
2018-02-20T23:48:01.234Z,16.70
2018-02-20T23:50:29.733Z,16.17
2018-02-20T23:52:58.178Z,17.58
2018-02-20T23:55:27.315Z,19.62
2018-02-20T23:57:55.638Z,15.52
